sensor_id;sensor_type;location;lat;lon;timestamp;P1;durP1;ratioP1;P2;durP2;ratioP2
16139;SDS011;8175;49.326;12.690;2023-01-01T00:00:10;4.20;;;2.93;;
16139;SDS011;8175;49.326;12.690;2023-01-01T00:02:37;2.77;;;2.57;;
16139;SDS011;8175;49.326;12.690;2023-01-01T00:05:03;3.93;;;3.10;;
16139;SDS011;8175;49.326;12.690;2023-01-01T00:07:30;4.73;;;3.40;;
16139;SDS011;8175;49.326;12.690;2023-01-01T00:09:55;3.87;;;3.00;;
16139;SDS011;8175;49.326;12.690;2023-01-01T00:12:40;3.43;;;2.97;;
16139;SDS011;8175;49.326;12.690;2023-01-01T00:15:05;6.23;;;3.40;;
16139;SDS011;8175;49.326;12.690;2023-01-01T00:17:31;3.27;;;2.97;;
16139;SDS011;8175;49.326;12.690;2023-01-01T00:19:57;4.20;;;3.50;;
16139;SDS011;8175;49.326;12.690;2023-01-01T00:22:22;4.67;;;4.10;;
16139;SDS011;8175;49.326;12.690;2023-01-01T00:24:50;5.43;;;4.00;;
16139;SDS011;8175;49.326;12.690;2023-01-01T00:27:15;5.03;;;3.40;;
16139;SDS011;8175;49.326;12.690;2023-01-01T00:29:41;7.03;;;4.47;;
16139;SDS011;8175;49.326;12.690;2023-01-01T00:32:07;5.10;;;3.73;;
16139;SDS011;8175;49.326;12.690;2023-01-01T00:34:32;5.53;;;4.60;;
16139;SDS011;8175;49.326;12.690;2023-01-01T00:36:58;4.40;;;3.73;;
16139;SDS011;8175;49.326;12.690;2023-01-01T00:39:23;5.57;;;4.33;;
16139;SDS011;8175;49.326;12.690;2023-01-01T00:41:49;6.00;;;4.40;;
16139;SDS011;8175;49.326;12.690;2023-01-01T00:44:15;5.90;;;4.23;;
16139;SDS011;8175;49.326;12.690;2023-01-01T00:46:40;6.87;;;4.77;;
16139;SDS011;8175;49.326;12.690;2023-01-01T00:49:06;4.73;;;3.77;;
16139;SDS011;8175;49.326;12.690;2023-01-01T00:51:31;4.13;;;3.73;;
16139;SDS011;8175;49.326;12.690;2023-01-01T00:53:57;5.03;;;4.13;;
16139;SDS011;8175;49.326;12.690;2023-01-01T00:56:23;5.50;;;4.50;;
16139;SDS011;8175;49.326;12.690;2023-01-01T00:58:48;5.17;;;3.97;;
16139;SDS011;8175;49.326;12.690;2023-01-01T01:01:14;4.40;;;4.00;;
16139;SDS011;8175;49.326;12.690;2023-01-01T01:03:40;5.27;;;4.57;;
16139;SDS011;8175;49.326;12.690;2023-01-01T01:08:33;3.50;;;3.20;;
16139;SDS011;8175;49.326;12.690;2023-01-01T01:13:36;3.70;;;3.33;;
16139;SDS011;8175;49.326;12.690;2023-01-01T01:16:07;4.13;;;3.07;;
16139;SDS011;8175;49.326;12.690;2023-01-01T01:18:34;3.37;;;2.90;;
16139;SDS011;8175;49.326;12.690;2023-01-01T01:21:00;4.30;;;3.00;;
16139;SDS011;8175;49.326;12.690;2023-01-01T01:23:25;3.30;;;2.70;;
16139;SDS011;8175;49.326;12.690;2023-01-01T01:25:51;2.93;;;2.27;;
16139;SDS011;8175;49.326;12.690;2023-01-01T01:28:16;3.27;;;2.53;;
16139;SDS011;8175;49.326;12.690;2023-01-01T01:30:42;3.97;;;2.47;;
16139;SDS011;8175;49.326;12.690;2023-01-01T01:33:08;3.10;;;2.80;;
16139;SDS011;8175;49.326;12.690;2023-01-01T01:35:34;2.67;;;2.20;;
16139;SDS011;8175;49.326;12.690;2023-01-01T01:38:00;2.50;;;2.30;;
16139;SDS011;8175;49.326;12.690;2023-01-01T01:40:25;3.63;;;2.83;;
16139;SDS011;8175;49.326;12.690;2023-01-01T01:42:51;2.60;;;2.33;;
16139;SDS011;8175;49.326;12.690;2023-01-01T01:45:17;2.63;;;2.43;;
16139;SDS011;8175;49.326;12.690;2023-01-01T01:47:56;2.77;;;2.53;;
16139;SDS011;8175;49.326;12.690;2023-01-01T01:50:24;2.77;;;2.47;;
16139;SDS011;8175;49.326;12.690;2023-01-01T01:55:27;2.17;;;1.97;;
16139;SDS011;8175;49.326;12.690;2023-01-01T01:57:55;2.90;;;2.57;;
16139;SDS011;8175;49.326;12.690;2023-01-01T02:00:20;2.40;;;2.17;;
16139;SDS011;8175;49.326;12.690;2023-01-01T02:02:57;3.07;;;2.27;;
16139;SDS011;8175;49.326;12.690;2023-01-01T02:05:27;3.77;;;2.53;;
16139;SDS011;8175;49.326;12.690;2023-01-01T02:07:54;2.50;;;2.30;;
16139;SDS011;8175;49.326;12.690;2023-01-01T02:10:20;2.70;;;2.13;;
16139;SDS011;8175;49.326;12.690;2023-01-01T02:12:46;2.40;;;2.10;;
16139;SDS011;8175;49.326;12.690;2023-01-01T02:15:12;2.57;;;2.37;;
16139;SDS011;8175;49.326;12.690;2023-01-01T02:20:14;4.67;;;2.73;;
16139;SDS011;8175;49.326;12.690;2023-01-01T02:31:13;4.57;;;3.40;;
16139;SDS011;8175;49.326;12.690;2023-01-01T02:33:42;3.90;;;3.27;;
16139;SDS011;8175;49.326;12.690;2023-01-01T02:36:10;3.63;;;2.93;;
16139;SDS011;8175;49.326;12.690;2023-01-01T02:38:39;4.60;;;4.00;;
16139;SDS011;8175;49.326;12.690;2023-01-01T02:41:10;4.13;;;3.77;;
16139;SDS011;8175;49.326;12.690;2023-01-01T02:43:40;7.63;;;3.70;;
16139;SDS011;8175;49.326;12.690;2023-01-01T02:46:07;3.93;;;3.53;;
16139;SDS011;8175;49.326;12.690;2023-01-01T02:51:17;4.70;;;3.30;;
16139;SDS011;8175;49.326;12.690;2023-01-01T03:15:57;4.03;;;3.33;;
16139;SDS011;8175;49.326;12.690;2023-01-01T03:18:38;3.60;;;2.80;;
16139;SDS011;8175;49.326;12.690;2023-01-01T03:21:12;5.53;;;3.77;;
16139;SDS011;8175;49.326;12.690;2023-01-01T03:23:44;4.03;;;3.33;;
16139;SDS011;8175;49.326;12.690;2023-01-01T03:26:13;5.57;;;3.33;;
16139;SDS011;8175;49.326;12.690;2023-01-01T03:28:49;4.80;;;3.70;;
16139;SDS011;8175;49.326;12.690;2023-01-01T03:31:22;6.23;;;4.03;;
16139;SDS011;8175;49.326;12.690;2023-01-01T03:33:55;5.60;;;3.47;;
16139;SDS011;8175;49.326;12.690;2023-01-01T03:36:31;4.57;;;3.77;;
16139;SDS011;8175;49.326;12.690;2023-01-01T03:39:05;5.57;;;4.03;;
16139;SDS011;8175;49.326;12.690;2023-01-01T03:46:51;6.93;;;4.90;;
16139;SDS011;8175;49.326;12.690;2023-01-01T03:49:17;5.03;;;4.33;;
16139;SDS011;8175;49.326;12.690;2023-01-01T03:52:02;5.53;;;4.00;;
16139;SDS011;8175;49.326;12.690;2023-01-01T04:02:50;7.17;;;4.40;;
16139;SDS011;8175;49.326;12.690;2023-01-01T04:05:20;6.57;;;4.57;;
16139;SDS011;8175;49.326;12.690;2023-01-01T04:07:47;5.80;;;3.87;;
16139;SDS011;8175;49.326;12.690;2023-01-01T04:10:14;4.80;;;3.70;;
16139;SDS011;8175;49.326;12.690;2023-01-01T04:12:46;4.70;;;3.93;;
16139;SDS011;8175;49.326;12.690;2023-01-01T04:15:22;3.90;;;3.50;;
16139;SDS011;8175;49.326;12.690;2023-01-01T04:17:50;4.67;;;3.90;;
16139;SDS011;8175;49.326;12.690;2023-01-01T04:20:16;3.97;;;3.20;;
16139;SDS011;8175;49.326;12.690;2023-01-01T04:22:43;5.70;;;3.70;;
16139;SDS011;8175;49.326;12.690;2023-01-01T04:25:09;4.83;;;4.13;;
16139;SDS011;8175;49.326;12.690;2023-01-01T04:27:35;5.73;;;4.27;;
16139;SDS011;8175;49.326;12.690;2023-01-01T04:30:02;6.17;;;4.13;;
16139;SDS011;8175;49.326;12.690;2023-01-01T04:32:29;5.07;;;4.00;;
16139;SDS011;8175;49.326;12.690;2023-01-01T04:34:55;4.80;;;3.93;;
16139;SDS011;8175;49.326;12.690;2023-01-01T04:37:20;4.67;;;4.17;;
16139;SDS011;8175;49.326;12.690;2023-01-01T04:39:46;6.80;;;4.20;;
16139;SDS011;8175;49.326;12.690;2023-01-01T04:42:12;7.20;;;4.13;;
16139;SDS011;8175;49.326;12.690;2023-01-01T04:44:37;5.17;;;4.23;;
16139;SDS011;8175;49.326;12.690;2023-01-01T04:47:03;6.07;;;4.07;;
16139;SDS011;8175;49.326;12.690;2023-01-01T04:49:29;5.50;;;4.07;;
16139;SDS011;8175;49.326;12.690;2023-01-01T04:51:54;5.70;;;4.40;;
16139;SDS011;8175;49.326;12.690;2023-01-01T04:54:20;4.50;;;3.90;;
16139;SDS011;8175;49.326;12.690;2023-01-01T04:56:45;4.43;;;4.03;;
16139;SDS011;8175;49.326;12.690;2023-01-01T04:59:11;5.97;;;3.93;;
16139;SDS011;8175;49.326;12.690;2023-01-01T05:01:37;4.73;;;4.13;;
16139;SDS011;8175;49.326;12.690;2023-01-01T05:04:02;6.53;;;4.73;;
16139;SDS011;8175;49.326;12.690;2023-01-01T05:06:28;7.77;;;4.60;;
16139;SDS011;8175;49.326;12.690;2023-01-01T05:08:54;5.63;;;4.37;;
16139;SDS011;8175;49.326;12.690;2023-01-01T05:11:24;5.43;;;4.20;;
16139;SDS011;8175;49.326;12.690;2023-01-01T05:13:53;5.77;;;4.40;;
16139;SDS011;8175;49.326;12.690;2023-01-01T05:16:22;5.77;;;4.37;;
16139;SDS011;8175;49.326;12.690;2023-01-01T05:18:49;6.30;;;4.83;;
16139;SDS011;8175;49.326;12.690;2023-01-01T05:21:19;6.20;;;4.80;;
16139;SDS011;8175;49.326;12.690;2023-01-01T05:23:57;6.57;;;5.77;;
16139;SDS011;8175;49.326;12.690;2023-01-01T05:26:26;6.27;;;4.87;;
16139;SDS011;8175;49.326;12.690;2023-01-01T05:28:54;6.07;;;4.80;;
16139;SDS011;8175;49.326;12.690;2023-01-01T05:31:21;7.03;;;5.23;;
16139;SDS011;8175;49.326;12.690;2023-01-01T05:33:49;8.77;;;5.60;;
16139;SDS011;8175;49.326;12.690;2023-01-01T05:36:17;5.93;;;5.27;;
16139;SDS011;8175;49.326;12.690;2023-01-01T05:38:44;7.70;;;5.73;;
16139;SDS011;8175;49.326;12.690;2023-01-01T05:41:11;7.80;;;6.70;;
16139;SDS011;8175;49.326;12.690;2023-01-01T05:43:38;7.13;;;6.07;;
16139;SDS011;8175;49.326;12.690;2023-01-01T05:46:05;8.50;;;6.17;;
16139;SDS011;8175;49.326;12.690;2023-01-01T05:48:33;8.57;;;6.27;;
16139;SDS011;8175;49.326;12.690;2023-01-01T05:51:03;8.53;;;6.60;;
16139;SDS011;8175;49.326;12.690;2023-01-01T05:53:30;10.80;;;6.67;;
16139;SDS011;8175;49.326;12.690;2023-01-01T05:55:57;9.30;;;7.50;;
16139;SDS011;8175;49.326;12.690;2023-01-01T05:58:23;9.30;;;7.10;;
16139;SDS011;8175;49.326;12.690;2023-01-01T06:00:49;7.63;;;6.63;;
16139;SDS011;8175;49.326;12.690;2023-01-01T06:03:15;9.73;;;7.33;;
16139;SDS011;8175;49.326;12.690;2023-01-01T06:05:41;8.30;;;6.37;;
16139;SDS011;8175;49.326;12.690;2023-01-01T06:08:07;10.00;;;6.90;;
16139;SDS011;8175;49.326;12.690;2023-01-01T06:10:32;9.00;;;6.47;;
16139;SDS011;8175;49.326;12.690;2023-01-01T06:12:58;10.23;;;7.00;;
16139;SDS011;8175;49.326;12.690;2023-01-01T06:15:24;11.53;;;6.87;;
16139;SDS011;8175;49.326;12.690;2023-01-01T06:17:50;10.10;;;7.33;;
16139;SDS011;8175;49.326;12.690;2023-01-01T06:20:16;10.43;;;7.87;;
16139;SDS011;8175;49.326;12.690;2023-01-01T06:22:42;11.30;;;8.50;;
16139;SDS011;8175;49.326;12.690;2023-01-01T06:25:08;11.00;;;8.53;;
16139;SDS011;8175;49.326;12.690;2023-01-01T06:27:34;12.40;;;8.63;;
16139;SDS011;8175;49.326;12.690;2023-01-01T06:30:04;14.80;;;9.03;;
16139;SDS011;8175;49.326;12.690;2023-01-01T06:32:30;13.00;;;8.43;;
16139;SDS011;8175;49.326;12.690;2023-01-01T06:34:56;15.80;;;9.03;;
16139;SDS011;8175;49.326;12.690;2023-01-01T06:37:22;13.63;;;9.43;;
16139;SDS011;8175;49.326;12.690;2023-01-01T06:39:48;12.97;;;8.93;;
16139;SDS011;8175;49.326;12.690;2023-01-01T06:42:13;15.50;;;10.40;;
16139;SDS011;8175;49.326;12.690;2023-01-01T06:44:39;15.80;;;10.30;;
16139;SDS011;8175;49.326;12.690;2023-01-01T06:47:05;14.73;;;10.80;;
16139;SDS011;8175;49.326;12.690;2023-01-01T06:49:31;14.40;;;10.67;;
16139;SDS011;8175;49.326;12.690;2023-01-01T06:51:56;13.00;;;10.37;;
16139;SDS011;8175;49.326;12.690;2023-01-01T06:54:22;13.13;;;9.27;;
16139;SDS011;8175;49.326;12.690;2023-01-01T06:56:47;14.43;;;11.17;;
16139;SDS011;8175;49.326;12.690;2023-01-01T06:59:14;15.43;;;11.43;;
16139;SDS011;8175;49.326;12.690;2023-01-01T07:01:43;16.27;;;10.90;;
16139;SDS011;8175;49.326;12.690;2023-01-01T07:04:13;13.67;;;10.30;;
16139;SDS011;8175;49.326;12.690;2023-01-01T07:06:40;12.47;;;9.73;;
16139;SDS011;8175;49.326;12.690;2023-01-01T07:09:06;13.80;;;10.13;;
16139;SDS011;8175;49.326;12.690;2023-01-01T07:11:34;16.57;;;10.43;;
16139;SDS011;8175;49.326;12.690;2023-01-01T07:14:00;13.93;;;9.80;;
16139;SDS011;8175;49.326;12.690;2023-01-01T07:16:26;14.07;;;10.90;;
16139;SDS011;8175;49.326;12.690;2023-01-01T07:18:52;13.20;;;10.23;;
16139;SDS011;8175;49.326;12.690;2023-01-01T07:21:20;17.00;;;13.07;;
16139;SDS011;8175;49.326;12.690;2023-01-01T07:23:52;12.33;;;9.07;;
16139;SDS011;8175;49.326;12.690;2023-01-01T07:26:20;13.83;;;9.30;;
16139;SDS011;8175;49.326;12.690;2023-01-01T07:28:47;13.07;;;9.63;;
16139;SDS011;8175;49.326;12.690;2023-01-01T07:31:13;28.37;;;19.40;;
16139;SDS011;8175;49.326;12.690;2023-01-01T07:33:38;13.93;;;10.13;;
16139;SDS011;8175;49.326;12.690;2023-01-01T07:36:04;11.07;;;8.13;;
16139;SDS011;8175;49.326;12.690;2023-01-01T07:38:30;12.67;;;9.03;;
16139;SDS011;8175;49.326;12.690;2023-01-01T07:40:55;10.53;;;7.67;;
16139;SDS011;8175;49.326;12.690;2023-01-01T07:43:21;11.67;;;7.90;;
16139;SDS011;8175;49.326;12.690;2023-01-01T07:45:47;10.13;;;7.83;;
16139;SDS011;8175;49.326;12.690;2023-01-01T07:48:13;10.33;;;7.10;;
16139;SDS011;8175;49.326;12.690;2023-01-01T07:50:39;9.53;;;7.17;;
16139;SDS011;8175;49.326;12.690;2023-01-01T07:53:05;12.50;;;8.17;;
16139;SDS011;8175;49.326;12.690;2023-01-01T07:55:31;9.63;;;7.63;;
16139;SDS011;8175;49.326;12.690;2023-01-01T07:57:58;12.87;;;8.23;;
16139;SDS011;8175;49.326;12.690;2023-01-01T08:00:24;10.43;;;7.17;;
16139;SDS011;8175;49.326;12.690;2023-01-01T08:02:49;10.90;;;7.30;;
16139;SDS011;8175;49.326;12.690;2023-01-01T08:05:15;11.47;;;8.70;;
16139;SDS011;8175;49.326;12.690;2023-01-01T08:07:44;10.70;;;7.57;;
16139;SDS011;8175;49.326;12.690;2023-01-01T08:10:12;13.50;;;7.93;;
16139;SDS011;8175;49.326;12.690;2023-01-01T08:12:38;10.23;;;7.60;;
16139;SDS011;8175;49.326;12.690;2023-01-01T08:15:04;12.27;;;7.83;;
16139;SDS011;8175;49.326;12.690;2023-01-01T08:17:30;9.77;;;7.50;;
16139;SDS011;8175;49.326;12.690;2023-01-01T08:19:55;9.73;;;7.37;;
16139;SDS011;8175;49.326;12.690;2023-01-01T08:22:21;12.10;;;8.07;;
16139;SDS011;8175;49.326;12.690;2023-01-01T08:24:47;11.33;;;8.30;;
16139;SDS011;8175;49.326;12.690;2023-01-01T08:27:13;9.90;;;8.47;;
16139;SDS011;8175;49.326;12.690;2023-01-01T08:29:39;9.97;;;7.30;;
16139;SDS011;8175;49.326;12.690;2023-01-01T08:32:05;9.40;;;7.47;;
16139;SDS011;8175;49.326;12.690;2023-01-01T08:34:30;9.33;;;7.47;;
16139;SDS011;8175;49.326;12.690;2023-01-01T08:36:56;12.67;;;8.57;;
16139;SDS011;8175;49.326;12.690;2023-01-01T08:39:21;10.80;;;7.27;;
16139;SDS011;8175;49.326;12.690;2023-01-01T08:41:47;9.33;;;7.63;;
16139;SDS011;8175;49.326;12.690;2023-01-01T08:44:13;10.77;;;8.00;;
16139;SDS011;8175;49.326;12.690;2023-01-01T08:46:38;13.17;;;7.73;;
16139;SDS011;8175;49.326;12.690;2023-01-01T08:49:04;9.77;;;7.47;;
16139;SDS011;8175;49.326;12.690;2023-01-01T08:51:29;11.83;;;8.10;;
16139;SDS011;8175;49.326;12.690;2023-01-01T08:53:55;11.40;;;8.03;;
16139;SDS011;8175;49.326;12.690;2023-01-01T08:56:21;9.73;;;8.37;;
16139;SDS011;8175;49.326;12.690;2023-01-01T08:58:46;10.37;;;7.83;;
16139;SDS011;8175;49.326;12.690;2023-01-01T09:01:13;11.80;;;8.87;;
16139;SDS011;8175;49.326;12.690;2023-01-01T09:03:39;11.80;;;8.67;;
16139;SDS011;8175;49.326;12.690;2023-01-01T09:06:04;12.20;;;8.57;;
16139;SDS011;8175;49.326;12.690;2023-01-01T09:08:30;11.57;;;8.83;;
16139;SDS011;8175;49.326;12.690;2023-01-01T09:10:57;13.70;;;9.17;;
16139;SDS011;8175;49.326;12.690;2023-01-01T09:13:24;13.13;;;10.03;;
16139;SDS011;8175;49.326;12.690;2023-01-01T09:15:50;12.10;;;9.20;;
16139;SDS011;8175;49.326;12.690;2023-01-01T09:18:16;12.57;;;9.10;;
16139;SDS011;8175;49.326;12.690;2023-01-01T09:20:41;9.90;;;8.37;;
16139;SDS011;8175;49.326;12.690;2023-01-01T09:23:07;11.93;;;8.20;;
16139;SDS011;8175;49.326;12.690;2023-01-01T09:25:34;12.93;;;9.60;;
16139;SDS011;8175;49.326;12.690;2023-01-01T09:28:01;12.17;;;9.57;;
16139;SDS011;8175;49.326;12.690;2023-01-01T09:30:29;12.67;;;8.73;;
16139;SDS011;8175;49.326;12.690;2023-01-01T09:32:55;10.83;;;9.07;;
16139;SDS011;8175;49.326;12.690;2023-01-01T09:35:20;12.13;;;9.03;;
16139;SDS011;8175;49.326;12.690;2023-01-01T09:37:46;11.40;;;8.30;;
16139;SDS011;8175;49.326;12.690;2023-01-01T09:40:55;14.90;;;8.40;;
16139;SDS011;8175;49.326;12.690;2023-01-01T09:46:03;9.93;;;8.27;;
16139;SDS011;8175;49.326;12.690;2023-01-01T09:48:31;10.53;;;8.20;;
16139;SDS011;8175;49.326;12.690;2023-01-01T09:50:58;10.23;;;7.63;;
16139;SDS011;8175;49.326;12.690;2023-01-01T09:55:59;10.00;;;7.80;;
16139;SDS011;8175;49.326;12.690;2023-01-01T09:58:28;14.23;;;10.43;;
16139;SDS011;8175;49.326;12.690;2023-01-01T10:01:05;16.60;;;11.87;;
16139;SDS011;8175;49.326;12.690;2023-01-01T10:03:36;11.13;;;8.10;;
16139;SDS011;8175;49.326;12.690;2023-01-01T10:06:21;11.03;;;8.23;;
16139;SDS011;8175;49.326;12.690;2023-01-01T10:11:30;12.43;;;8.87;;
16139;SDS011;8175;49.326;12.690;2023-01-01T10:17:03;10.73;;;7.83;;
16139;SDS011;8175;49.326;12.690;2023-01-01T10:19:49;9.27;;;7.07;;
16139;SDS011;8175;49.326;12.690;2023-01-01T10:25:21;9.50;;;7.13;;
16139;SDS011;8175;49.326;12.690;2023-01-01T10:27:59;9.67;;;7.63;;
16139;SDS011;8175;49.326;12.690;2023-01-01T10:30:28;9.87;;;7.50;;
16139;SDS011;8175;49.326;12.690;2023-01-01T10:32:55;8.60;;;7.70;;
16139;SDS011;8175;49.326;12.690;2023-01-01T10:35:25;8.23;;;7.27;;
16139;SDS011;8175;49.326;12.690;2023-01-01T10:38:00;10.40;;;7.63;;
16139;SDS011;8175;49.326;12.690;2023-01-01T10:40:28;9.20;;;7.73;;
16139;SDS011;8175;49.326;12.690;2023-01-01T10:42:55;12.43;;;8.03;;
16139;SDS011;8175;49.326;12.690;2023-01-01T10:45:29;9.83;;;7.90;;
16139;SDS011;8175;49.326;12.690;2023-01-01T10:50:52;8.40;;;7.07;;
16139;SDS011;8175;49.326;12.690;2023-01-01T10:58:45;8.93;;;7.47;;
16139;SDS011;8175;49.326;12.690;2023-01-01T11:06:45;14.55;;;10.52;;
16139;SDS011;8175;49.326;12.690;2023-01-01T11:09:23;8.55;;;7.65;;
16139;SDS011;8175;49.326;12.690;2023-01-01T11:11:54;9.20;;;7.45;;
16139;SDS011;8175;49.326;12.690;2023-01-01T11:14:29;9.57;;;7.93;;
16139;SDS011;8175;49.326;12.690;2023-01-01T11:16:57;8.82;;;7.93;;
16139;SDS011;8175;49.326;12.690;2023-01-01T11:21:52;8.88;;;7.30;;
16139;SDS011;8175;49.326;12.690;2023-01-01T11:24:22;9.32;;;7.85;;
16139;SDS011;8175;49.326;12.690;2023-01-01T11:26:49;9.00;;;7.30;;
16139;SDS011;8175;49.326;12.690;2023-01-01T11:31:52;8.40;;;7.50;;
16139;SDS011;8175;49.326;12.690;2023-01-01T11:37:09;8.10;;;6.70;;
16139;SDS011;8175;49.326;12.690;2023-01-01T11:39:54;8.73;;;7.05;;
16139;SDS011;8175;49.326;12.690;2023-01-01T11:42:32;8.90;;;7.35;;
16139;SDS011;8175;49.326;12.690;2023-01-01T11:45:00;7.78;;;6.82;;
16139;SDS011;8175;49.326;12.690;2023-01-01T11:47:48;7.88;;;6.68;;
16139;SDS011;8175;49.326;12.690;2023-01-01T11:50:33;9.25;;;7.70;;
16139;SDS011;8175;49.326;12.690;2023-01-01T11:56:32;8.10;;;6.40;;
16139;SDS011;8175;49.326;12.690;2023-01-01T11:58:49;9.18;;;7.50;;
16139;SDS011;8175;49.326;12.690;2023-01-01T12:01:25;8.18;;;6.55;;
16139;SDS011;8175;49.326;12.690;2023-01-01T12:20:28;9.00;;;7.22;;
16139;SDS011;8175;49.326;12.690;2023-01-01T12:22:59;9.55;;;7.20;;
16139;SDS011;8175;49.326;12.690;2023-01-01T12:25:28;7.60;;;6.90;;
16139;SDS011;8175;49.326;12.690;2023-01-01T12:33:29;9.55;;;7.18;;
16139;SDS011;8175;49.326;12.690;2023-01-01T12:36:36;7.50;;;6.40;;
16139;SDS011;8175;49.326;12.690;2023-01-01T12:42:05;6.65;;;5.78;;
16139;SDS011;8175;49.326;12.690;2023-01-01T12:44:42;6.35;;;5.75;;
16139;SDS011;8175;49.326;12.690;2023-01-01T12:52:51;8.10;;;6.80;;
16139;SDS011;8175;49.326;12.690;2023-01-01T12:55:35;8.85;;;6.88;;
16139;SDS011;8175;49.326;12.690;2023-01-01T13:00:42;7.03;;;6.30;;
16139;SDS011;8175;49.326;12.690;2023-01-01T13:03:19;7.63;;;6.27;;
16139;SDS011;8175;49.326;12.690;2023-01-01T13:05:51;8.60;;;6.50;;
16139;SDS011;8175;49.326;12.690;2023-01-01T13:08:20;8.23;;;6.93;;
16139;SDS011;8175;49.326;12.690;2023-01-01T13:10:46;8.27;;;7.40;;
16139;SDS011;8175;49.326;12.690;2023-01-01T13:13:15;9.33;;;7.70;;
16139;SDS011;8175;49.326;12.690;2023-01-01T13:15:45;7.60;;;5.87;;
16139;SDS011;8175;49.326;12.690;2023-01-01T13:18:22;7.50;;;6.53;;
16139;SDS011;8175;49.326;12.690;2023-01-01T13:21:20;7.03;;;6.33;;
16139;SDS011;8175;49.326;12.690;2023-01-01T13:23:47;8.63;;;6.70;;
16139;SDS011;8175;49.326;12.690;2023-01-01T13:45:29;6.93;;;5.57;;
16139;SDS011;8175;49.326;12.690;2023-01-01T13:51:08;6.50;;;5.87;;
16139;SDS011;8175;49.326;12.690;2023-01-01T14:05:15;6.23;;;5.37;;
16139;SDS011;8175;49.326;12.690;2023-01-01T14:07:59;8.23;;;5.33;;
16139;SDS011;8175;49.326;12.690;2023-01-01T14:18:02;6.87;;;6.10;;
16139;SDS011;8175;49.326;12.690;2023-01-01T14:20:35;6.63;;;5.10;;
16139;SDS011;8175;49.326;12.690;2023-01-01T14:23:08;5.83;;;5.17;;
16139;SDS011;8175;49.326;12.690;2023-01-01T14:25:36;6.23;;;5.13;;
16139;SDS011;8175;49.326;12.690;2023-01-01T14:28:04;8.13;;;5.87;;
16139;SDS011;8175;49.326;12.690;2023-01-01T14:30:47;8.10;;;6.30;;
16139;SDS011;8175;49.326;12.690;2023-01-01T14:33:23;7.03;;;5.27;;
16139;SDS011;8175;49.326;12.690;2023-01-01T14:35:54;5.93;;;5.30;;
16139;SDS011;8175;49.326;12.690;2023-01-01T14:38:32;7.07;;;5.53;;
16139;SDS011;8175;49.326;12.690;2023-01-01T14:41:00;8.23;;;5.47;;
16139;SDS011;8175;49.326;12.690;2023-01-01T14:43:40;6.40;;;5.40;;
16139;SDS011;8175;49.326;12.690;2023-01-01T14:46:12;6.70;;;4.83;;
16139;SDS011;8175;49.326;12.690;2023-01-01T14:48:42;7.73;;;5.63;;
16139;SDS011;8175;49.326;12.690;2023-01-01T14:51:11;9.53;;;5.77;;
16139;SDS011;8175;49.326;12.690;2023-01-01T14:53:39;6.57;;;5.80;;
16139;SDS011;8175;49.326;12.690;2023-01-01T14:56:07;5.93;;;4.90;;
16139;SDS011;8175;49.326;12.690;2023-01-01T14:58:33;7.40;;;5.53;;
16139;SDS011;8175;49.326;12.690;2023-01-01T15:01:16;7.20;;;5.40;;
16139;SDS011;8175;49.326;12.690;2023-01-01T15:03:53;6.10;;;4.67;;
16139;SDS011;8175;49.326;12.690;2023-01-01T15:06:21;6.40;;;4.90;;
16139;SDS011;8175;49.326;12.690;2023-01-01T15:08:48;7.10;;;5.23;;
16139;SDS011;8175;49.326;12.690;2023-01-01T15:11:18;6.00;;;4.80;;
16139;SDS011;8175;49.326;12.690;2023-01-01T15:13:52;5.10;;;4.43;;
16139;SDS011;8175;49.326;12.690;2023-01-01T15:16:19;7.80;;;4.90;;
16139;SDS011;8175;49.326;12.690;2023-01-01T15:18:45;6.27;;;4.67;;
16139;SDS011;8175;49.326;12.690;2023-01-01T15:21:16;7.43;;;5.13;;
16139;SDS011;8175;49.326;12.690;2023-01-01T15:23:52;7.07;;;5.03;;
16139;SDS011;8175;49.326;12.690;2023-01-01T15:29:16;7.03;;;4.43;;
16139;SDS011;8175;49.326;12.690;2023-01-01T15:32:06;7.77;;;5.17;;
16139;SDS011;8175;49.326;12.690;2023-01-01T15:34:41;7.93;;;4.90;;
16139;SDS011;8175;49.326;12.690;2023-01-01T15:37:11;7.20;;;4.97;;
16139;SDS011;8175;49.326;12.690;2023-01-01T15:42:30;7.00;;;4.37;;
16139;SDS011;8175;49.326;12.690;2023-01-01T15:47:56;8.10;;;5.53;;
16139;SDS011;8175;49.326;12.690;2023-01-01T15:51:11;5.53;;;4.27;;
16139;SDS011;8175;49.326;12.690;2023-01-01T15:53:21;6.80;;;5.53;;
16139;SDS011;8175;49.326;12.690;2023-01-01T15:58:47;5.60;;;4.17;;
16139;SDS011;8175;49.326;12.690;2023-01-01T16:01:18;7.10;;;4.63;;
16139;SDS011;8175;49.326;12.690;2023-01-01T16:03:45;6.50;;;4.40;;
16139;SDS011;8175;49.326;12.690;2023-01-01T16:06:15;5.57;;;4.73;;
16139;SDS011;8175;49.326;12.690;2023-01-01T16:08:42;8.33;;;4.03;;
16139;SDS011;8175;49.326;12.690;2023-01-01T16:11:07;6.23;;;4.23;;
16139;SDS011;8175;49.326;12.690;2023-01-01T16:13:33;5.10;;;3.90;;
16139;SDS011;8175;49.326;12.690;2023-01-01T16:16:00;5.97;;;4.50;;
16139;SDS011;8175;49.326;12.690;2023-01-01T16:18:27;6.60;;;4.30;;
16139;SDS011;8175;49.326;12.690;2023-01-01T16:20:59;8.33;;;4.30;;
16139;SDS011;8175;49.326;12.690;2023-01-01T16:23:25;7.57;;;4.83;;
16139;SDS011;8175;49.326;12.690;2023-01-01T16:25:51;6.53;;;4.57;;
16139;SDS011;8175;49.326;12.690;2023-01-01T16:28:17;7.97;;;4.93;;
16139;SDS011;8175;49.326;12.690;2023-01-01T16:30:43;6.13;;;4.63;;
16139;SDS011;8175;49.326;12.690;2023-01-01T16:33:15;5.23;;;3.97;;
16139;SDS011;8175;49.326;12.690;2023-01-01T16:35:43;5.60;;;4.13;;
16139;SDS011;8175;49.326;12.690;2023-01-01T16:38:09;5.30;;;3.77;;
16139;SDS011;8175;49.326;12.690;2023-01-01T16:40:34;6.47;;;4.73;;
16139;SDS011;8175;49.326;12.690;2023-01-01T16:43:00;8.00;;;4.33;;
16139;SDS011;8175;49.326;12.690;2023-01-01T16:45:26;9.80;;;4.50;;
16139;SDS011;8175;49.326;12.690;2023-01-01T16:47:52;5.60;;;4.20;;
16139;SDS011;8175;49.326;12.690;2023-01-01T16:50:19;6.37;;;4.37;;
16139;SDS011;8175;49.326;12.690;2023-01-01T16:52:45;5.90;;;4.17;;
16139;SDS011;8175;49.326;12.690;2023-01-01T16:55:10;7.57;;;4.37;;
16139;SDS011;8175;49.326;12.690;2023-01-01T16:57:37;6.10;;;3.90;;
16139;SDS011;8175;49.326;12.690;2023-01-01T17:00:04;6.03;;;4.13;;
16139;SDS011;8175;49.326;12.690;2023-01-01T17:02:30;5.43;;;4.00;;
16139;SDS011;8175;49.326;12.690;2023-01-01T17:04:56;5.17;;;4.30;;
16139;SDS011;8175;49.326;12.690;2023-01-01T17:07:22;4.73;;;3.67;;
16139;SDS011;8175;49.326;12.690;2023-01-01T17:09:47;6.87;;;4.40;;
16139;SDS011;8175;49.326;12.690;2023-01-01T17:12:13;4.80;;;3.87;;
16139;SDS011;8175;49.326;12.690;2023-01-01T17:14:39;5.33;;;4.50;;
16139;SDS011;8175;49.326;12.690;2023-01-01T17:17:04;5.50;;;4.27;;
16139;SDS011;8175;49.326;12.690;2023-01-01T17:19:30;9.43;;;4.10;;
16139;SDS011;8175;49.326;12.690;2023-01-01T17:21:55;9.03;;;4.30;;
16139;SDS011;8175;49.326;12.690;2023-01-01T17:24:21;5.60;;;4.00;;
16139;SDS011;8175;49.326;12.690;2023-01-01T17:26:51;4.73;;;4.30;;
16139;SDS011;8175;49.326;12.690;2023-01-01T17:29:18;6.67;;;4.13;;
16139;SDS011;8175;49.326;12.690;2023-01-01T17:31:45;7.00;;;3.90;;
16139;SDS011;8175;49.326;12.690;2023-01-01T17:34:11;5.80;;;4.03;;
16139;SDS011;8175;49.326;12.690;2023-01-01T17:36:38;7.17;;;4.83;;
16139;SDS011;8175;49.326;12.690;2023-01-01T17:39:04;5.33;;;4.03;;
16139;SDS011;8175;49.326;12.690;2023-01-01T17:41:29;8.47;;;4.40;;
16139;SDS011;8175;49.326;12.690;2023-01-01T17:43:55;7.00;;;4.73;;
16139;SDS011;8175;49.326;12.690;2023-01-01T17:46:22;5.03;;;4.23;;
16139;SDS011;8175;49.326;12.690;2023-01-01T17:48:53;5.80;;;4.43;;
16139;SDS011;8175;49.326;12.690;2023-01-01T17:51:19;6.13;;;5.00;;
16139;SDS011;8175;49.326;12.690;2023-01-01T17:53:45;7.37;;;4.90;;